createdAt,value
2024-03-10T00:00:22.176Z,64.43
2024-03-10T00:03:11.055Z,64.33
2024-03-10T00:05:41.877Z,64.43
2024-03-10T00:08:09.725Z,64.81
2024-03-10T00:10:42.804Z,64.87
2024-03-10T00:13:10.874Z,64.86
2024-03-10T00:15:39.030Z,65.20
2024-03-10T00:18:07.589Z,65.33
2024-03-10T00:20:35.708Z,65.77
2024-03-10T00:23:05.001Z,66.44
2024-03-10T00:25:32.856Z,66.73
2024-03-10T00:28:00.619Z,67.09
2024-03-10T00:30:29.461Z,67.14
2024-03-10T00:32:57.467Z,66.84
2024-03-10T00:35:25.309Z,67.37
2024-03-10T00:37:53.917Z,67.68
2024-03-10T00:40:21.745Z,67.27
2024-03-10T00:42:49.473Z,67.50
2024-03-10T00:45:17.332Z,67.53
2024-03-10T00:47:46.513Z,68.38
2024-03-10T00:50:15.877Z,68.72
2024-03-10T00:52:43.926Z,68.28
2024-03-10T00:55:12.073Z,68.60
2024-03-10T00:57:40.034Z,69.12
2024-03-10T01:00:11.715Z,69.29
2024-03-10T01:02:39.983Z,69.46
2024-03-10T01:05:08.958Z,69.73
2024-03-10T01:07:36.877Z,70.22
2024-03-10T01:10:05.059Z,70.36
2024-03-10T01:12:32.835Z,70.50
2024-03-10T01:15:00.595Z,70.60
2024-03-10T01:17:28.756Z,70.70
2024-03-10T01:19:58.169Z,71.18
2024-03-10T01:22:26.088Z,71.21
2024-03-10T01:24:55.401Z,71.26
2024-03-10T01:27:23.185Z,71.29
2024-03-10T01:29:52.232Z,71.36
2024-03-10T01:32:20.136Z,71.52
2024-03-10T01:34:48.029Z,71.60
2024-03-10T01:37:16.862Z,71.69
2024-03-10T01:39:44.681Z,71.80
2024-03-10T01:42:12.569Z,71.94
2024-03-10T01:44:40.474Z,72.06
2024-03-10T01:47:09.120Z,71.87
2024-03-10T01:49:38.012Z,71.98
2024-03-10T01:52:07.966Z,71.52
2024-03-10T01:54:36.883Z,71.95
2024-03-10T01:57:06.252Z,71.82
2024-03-10T01:59:35.228Z,72.08
2024-03-10T02:02:06.263Z,71.33
2024-03-10T02:04:34.320Z,71.58
2024-03-10T02:07:03.054Z,71.36
2024-03-10T02:09:32.097Z,71.55
2024-03-10T02:12:00.354Z,71.92
2024-03-10T02:14:28.192Z,72.07
2024-03-10T02:16:55.972Z,72.05
2024-03-10T02:19:23.763Z,72.10
2024-03-10T02:21:51.501Z,72.94
2024-03-10T02:24:25.541Z,73.30
2024-03-10T02:26:53.331Z,73.00
2024-03-10T02:29:22.634Z,72.89
2024-03-10T02:32:10.273Z,72.90
2024-03-10T02:34:57.939Z,72.85
2024-03-10T02:37:44.574Z,73.01
2024-03-10T02:40:31.271Z,73.29
2024-03-10T02:43:17.968Z,73.10
2024-03-10T02:46:04.229Z,73.31
2024-03-10T02:48:33.104Z,73.44
2024-03-10T02:51:00.927Z,73.52
2024-03-10T02:53:28.761Z,73.82
2024-03-10T02:55:56.905Z,73.87
2024-03-10T02:58:24.628Z,74.10
2024-03-10T03:00:52.388Z,73.88
2024-03-10T03:03:20.189Z,74.11
2024-03-10T03:05:49.131Z,74.21
2024-03-10T03:08:17.805Z,73.94
2024-03-10T03:10:46.151Z,74.25
2024-03-10T03:13:13.985Z,74.67
2024-03-10T03:15:41.718Z,74.74
2024-03-10T03:18:09.686Z,74.51
2024-03-10T03:20:37.545Z,74.45
2024-03-10T03:23:05.606Z,74.55
2024-03-10T03:25:34.045Z,74.39
2024-03-10T03:28:02.083Z,74.41
2024-03-10T03:30:31.543Z,74.34
2024-03-10T03:32:59.463Z,74.86
2024-03-10T03:35:27.442Z,75.33
2024-03-10T03:37:55.394Z,75.23
2024-03-10T03:40:24.524Z,74.69
2024-03-10T03:42:52.431Z,74.78
2024-03-10T03:45:20.292Z,74.94
2024-03-10T03:47:48.090Z,74.76
2024-03-10T03:50:16.683Z,74.88
2024-03-10T03:52:44.631Z,75.08
2024-03-10T03:55:12.539Z,74.91
2024-03-10T03:57:40.305Z,75.03
2024-03-10T04:00:13.462Z,74.96
2024-03-10T04:02:41.457Z,74.94
2024-03-10T04:05:09.810Z,75.06
2024-03-10T04:07:37.606Z,75.09
2024-03-10T04:10:07.340Z,75.16
2024-03-10T04:12:35.063Z,75.07
2024-03-10T04:15:03.798Z,74.96
2024-03-10T04:17:33.261Z,75.07
2024-03-10T04:20:01.506Z,74.96
2024-03-10T04:22:29.513Z,74.97
2024-03-10T04:24:57.370Z,75.02
2024-03-10T04:27:25.351Z,75.01
2024-03-10T04:29:53.158Z,75.06
2024-03-10T04:32:20.953Z,74.99
2024-03-10T04:34:48.786Z,75.04
2024-03-10T04:37:16.600Z,75.09
2024-03-10T04:39:44.300Z,75.14
2024-03-10T04:42:11.964Z,75.23
2024-03-10T04:44:39.714Z,75.11
2024-03-10T04:47:07.573Z,75.22
2024-03-10T04:49:35.355Z,75.31
2024-03-10T04:52:03.423Z,75.50
2024-03-10T04:54:32.220Z,75.27
2024-03-10T04:57:00.863Z,75.45
2024-03-10T04:59:28.951Z,75.49
2024-03-10T05:01:58.095Z,75.86
2024-03-10T05:04:25.916Z,75.65
2024-03-10T05:06:53.658Z,75.74
2024-03-10T05:09:21.627Z,76.00
2024-03-10T05:11:49.553Z,76.01
2024-03-10T05:14:17.539Z,76.22
2024-03-10T05:16:45.421Z,75.92
2024-03-10T05:19:13.247Z,75.96
2024-03-10T05:21:46.579Z,76.11
2024-03-10T05:24:14.800Z,76.00
2024-03-10T05:26:42.598Z,75.81
2024-03-10T05:29:10.537Z,75.86
2024-03-10T05:31:38.518Z,75.85
2024-03-10T05:34:06.586Z,75.79
2024-03-10T05:36:35.098Z,75.99
2024-03-10T05:39:03.535Z,75.93
2024-03-10T05:41:31.521Z,75.76
2024-03-10T05:44:01.042Z,75.77
2024-03-10T05:46:28.881Z,75.65
2024-03-10T05:48:57.358Z,75.66
2024-03-10T05:51:25.805Z,75.58
2024-03-10T05:53:56.426Z,75.92
2024-03-10T05:56:24.430Z,75.85
2024-03-10T05:58:52.409Z,75.87
2024-03-10T06:01:25.365Z,75.62
2024-03-10T06:03:53.776Z,75.85
2024-03-10T06:06:24.808Z,75.88
2024-03-10T06:08:55.528Z,75.77
2024-03-10T06:11:24.634Z,75.53
2024-03-10T06:13:55.531Z,75.55
2024-03-10T06:16:25.709Z,75.55
2024-03-10T06:18:57.367Z,75.38
2024-03-10T06:21:48.733Z,75.37
2024-03-10T06:24:35.263Z,75.28
2024-03-10T06:27:03.726Z,75.35
2024-03-10T06:29:33.351Z,75.23
2024-03-10T06:32:01.653Z,75.21
2024-03-10T06:34:29.620Z,74.98
2024-03-10T06:37:01.808Z,74.87
2024-03-10T06:39:29.605Z,74.85
2024-03-10T06:42:01.545Z,74.62
2024-03-10T06:44:29.409Z,74.41
2024-03-10T06:46:57.279Z,74.22
2024-03-10T06:49:25.074Z,74.15
2024-03-10T06:51:58.425Z,74.16
2024-03-10T06:54:26.178Z,74.30
2024-03-10T06:56:56.126Z,74.17
2024-03-10T06:59:24.332Z,73.90
2024-03-10T07:01:56.872Z,73.70
2024-03-10T07:04:25.270Z,73.61
2024-03-10T07:06:56.504Z,73.56
2024-03-10T07:09:24.456Z,73.27
2024-03-10T07:11:55.499Z,73.16
2024-03-10T07:14:23.577Z,73.17
2024-03-10T07:16:55.538Z,73.23
2024-03-10T07:19:23.266Z,72.71
2024-03-10T07:21:54.331Z,72.57
2024-03-10T07:24:22.053Z,72.62
2024-03-10T07:26:52.140Z,72.54
2024-03-10T07:29:20.090Z,72.60
2024-03-10T07:31:48.430Z,72.12
2024-03-10T07:34:21.771Z,71.37
2024-03-10T07:36:52.129Z,70.95
2024-03-10T07:39:19.920Z,70.56
2024-03-10T07:41:47.752Z,69.40
2024-03-10T07:44:17.296Z,68.36
2024-03-10T07:46:45.247Z,67.26
2024-03-10T07:49:13.315Z,67.35
2024-03-10T07:51:41.082Z,66.71
2024-03-10T07:54:09.482Z,65.65
2024-03-10T07:56:37.436Z,64.98
2024-03-10T07:59:05.326Z,64.29
2024-03-10T08:01:33.154Z,63.90
2024-03-10T08:04:01.364Z,63.08
2024-03-10T08:06:29.309Z,63.27
2024-03-10T08:08:57.459Z,63.02
2024-03-10T08:11:25.367Z,62.66
2024-03-10T08:13:53.314Z,62.05
2024-03-10T08:16:21.254Z,60.80
2024-03-10T08:18:51.021Z,60.45
2024-03-10T08:21:20.037Z,59.99
2024-03-10T08:23:47.798Z,60.02
2024-03-10T08:26:15.779Z,59.44
2024-03-10T08:28:44.064Z,58.74
2024-03-10T08:31:14.032Z,57.99
2024-03-10T08:33:41.864Z,57.78
2024-03-10T08:36:10.445Z,57.99
2024-03-10T08:38:38.527Z,57.76
2024-03-10T08:41:06.501Z,58.14
2024-03-10T08:43:36.176Z,58.21
2024-03-10T08:46:04.505Z,58.02
2024-03-10T08:48:32.368Z,56.93
2024-03-10T08:51:00.151Z,55.63
2024-03-10T08:53:28.502Z,53.98
2024-03-10T08:55:56.955Z,53.53
2024-03-10T08:58:25.865Z,52.99
2024-03-10T09:00:53.781Z,52.55
2024-03-10T09:03:23.723Z,52.66
2024-03-10T09:05:52.278Z,52.94
2024-03-10T09:08:20.431Z,53.05
2024-03-10T09:10:53.769Z,51.50
2024-03-10T09:13:30.704Z,50.04
2024-03-10T09:15:58.869Z,49.34
2024-03-10T09:18:27.275Z,49.12
2024-03-10T09:20:57.593Z,49.16
2024-03-10T09:23:26.615Z,48.68
2024-03-10T09:25:55.985Z,48.42
2024-03-10T09:28:25.315Z,48.41
2024-03-10T09:30:53.095Z,48.11
2024-03-10T09:33:23.651Z,48.79
2024-03-10T09:35:55.363Z,49.37
2024-03-10T09:38:23.829Z,49.40
2024-03-10T09:40:52.628Z,49.33
2024-03-10T09:43:22.619Z,49.61
2024-03-10T09:45:53.417Z,50.02
2024-03-10T09:48:23.588Z,50.38
2024-03-10T09:50:53.285Z,50.22
2024-03-10T09:53:21.319Z,50.31
2024-03-10T09:55:50.008Z,50.45
2024-03-10T09:58:29.757Z,50.42
2024-03-10T10:01:13.455Z,50.46
2024-03-10T10:03:51.581Z,50.20
2024-03-10T10:06:21.940Z,50.07
2024-03-10T10:08:56.121Z,49.50
2024-03-10T10:11:27.191Z,48.07
2024-03-10T10:14:11.054Z,47.89
2024-03-10T10:16:49.130Z,47.82
2024-03-10T10:19:18.216Z,47.62
2024-03-10T10:21:46.277Z,47.34
2024-03-10T10:24:15.276Z,47.45
2024-03-10T10:26:43.337Z,47.63
2024-03-10T10:29:12.095Z,46.97
2024-03-10T10:31:40.051Z,46.96
2024-03-10T10:34:15.703Z,47.28
2024-03-10T10:36:45.004Z,47.43
2024-03-10T10:39:17.813Z,47.91
2024-03-10T10:41:47.016Z,48.16
2024-03-10T10:44:16.302Z,47.38
2024-03-10T10:46:45.781Z,46.93
2024-03-10T10:49:14.547Z,47.14
2024-03-10T10:51:45.966Z,47.44
2024-03-10T10:54:14.184Z,47.18
2024-03-10T10:56:42.229Z,47.42
2024-03-10T10:59:14.182Z,47.25
2024-03-10T11:01:46.629Z,46.53
2024-03-10T11:04:15.067Z,46.16
2024-03-10T11:06:43.821Z,46.17
2024-03-10T11:09:16.136Z,45.55
2024-03-10T11:11:47.528Z,45.35
2024-03-10T11:14:18.215Z,45.68
2024-03-10T11:16:46.450Z,45.85
2024-03-10T11:19:19.663Z,45.85
2024-03-10T11:21:51.598Z,46.26
2024-03-10T11:24:22.637Z,46.50
2024-03-10T11:27:11.578Z,46.71
2024-03-10T11:29:41.058Z,47.03
2024-03-10T11:32:34.766Z,47.13
2024-03-10T11:35:15.192Z,47.49
2024-03-10T11:37:44.336Z,47.27
2024-03-10T11:40:17.190Z,47.53
2024-03-10T11:42:46.512Z,47.87
2024-03-10T11:45:15.812Z,48.18
2024-03-10T11:47:59.272Z,47.80
2024-03-10T11:50:27.534Z,47.77
2024-03-10T11:52:55.404Z,47.82
2024-03-10T11:55:24.397Z,47.64
2024-03-10T11:57:55.385Z,47.10
2024-03-10T12:00:27.506Z,47.25
2024-03-10T12:02:56.509Z,46.90
2024-03-10T12:05:24.627Z,46.87
2024-03-10T12:07:59.299Z,46.69
2024-03-10T12:10:29.267Z,47.02
2024-03-10T12:12:59.123Z,46.96
2024-03-10T12:15:28.008Z,46.38
2024-03-10T12:17:56.226Z,46.61
2024-03-10T12:20:25.066Z,46.36
2024-03-10T12:22:54.421Z,46.45
2024-03-10T12:25:22.453Z,46.27
2024-03-10T12:27:50.754Z,46.58
2024-03-10T12:30:20.768Z,46.80
2024-03-10T12:32:54.608Z,46.94
2024-03-10T12:35:23.231Z,46.96
2024-03-10T12:37:52.875Z,46.82
2024-03-10T12:40:22.218Z,46.74
2024-03-10T12:42:52.280Z,46.88
2024-03-10T12:45:20.747Z,46.59
2024-03-10T12:47:52.307Z,46.47
2024-03-10T12:50:21.337Z,46.65
2024-03-10T12:52:49.636Z,47.21
2024-03-10T12:55:19.999Z,47.29
2024-03-10T12:57:47.834Z,46.97
2024-03-10T13:00:30.529Z,46.68
2024-03-10T13:02:59.343Z,46.32
2024-03-10T13:05:29.228Z,46.49
2024-03-10T13:07:58.908Z,46.82
2024-03-10T13:10:27.154Z,46.83
2024-03-10T13:12:55.069Z,46.94
2024-03-10T13:15:23.378Z,46.90
2024-03-10T13:17:51.668Z,46.77
2024-03-10T13:20:22.281Z,46.90
2024-03-10T13:22:50.534Z,46.88
2024-03-10T13:25:18.684Z,46.98
2024-03-10T13:27:46.561Z,46.98
2024-03-10T13:30:15.664Z,46.99
2024-03-10T13:32:43.893Z,46.98
2024-03-10T13:35:14.421Z,46.84
2024-03-10T13:37:42.671Z,47.03
2024-03-10T13:40:18.364Z,47.31
2024-03-10T13:42:47.427Z,47.31
2024-03-10T13:45:23.257Z,47.27
2024-03-10T13:48:00.304Z,47.40
2024-03-10T13:50:29.811Z,47.57
2024-03-10T13:52:57.909Z,47.44
2024-03-10T13:55:27.193Z,47.43
2024-03-10T13:57:55.501Z,47.29
2024-03-10T14:00:26.462Z,47.29
2024-03-10T14:02:54.941Z,47.33
2024-03-10T14:05:25.736Z,47.58
2024-03-10T14:07:54.132Z,47.50
2024-03-10T14:10:22.236Z,47.53
2024-03-10T14:12:50.053Z,47.55
2024-03-10T14:15:21.797Z,47.30
2024-03-10T14:17:49.856Z,47.62
2024-03-10T14:20:27.260Z,47.67
2024-03-10T14:22:55.703Z,47.87
2024-03-10T14:25:23.937Z,47.47
2024-03-10T14:27:53.456Z,47.71
2024-03-10T14:30:28.088Z,47.81
2024-03-10T14:32:58.050Z,48.04
2024-03-10T14:35:27.588Z,48.11
2024-03-10T14:37:57.230Z,47.91
2024-03-10T14:40:25.689Z,48.14
2024-03-10T14:42:56.338Z,48.34
2024-03-10T14:45:24.948Z,48.31
2024-03-10T14:47:53.905Z,48.56
2024-03-10T14:50:26.997Z,48.49
2024-03-10T14:52:56.477Z,48.64
2024-03-10T14:55:25.839Z,48.75
2024-03-10T14:57:54.654Z,48.84
2024-03-10T15:00:41.101Z,48.99
2024-03-10T15:03:16.669Z,49.19
2024-03-10T15:05:46.741Z,49.38
2024-03-10T15:08:18.028Z,49.36
2024-03-10T15:10:52.736Z,49.17
2024-03-10T15:13:24.124Z,49.29
2024-03-10T15:15:52.929Z,49.44
2024-03-10T15:18:21.040Z,49.40
2024-03-10T15:20:49.088Z,49.37
2024-03-10T15:23:20.233Z,49.40
2024-03-10T15:25:50.466Z,49.38
2024-03-10T15:28:21.672Z,49.54
2024-03-10T15:30:49.646Z,49.82
2024-03-10T15:33:18.195Z,49.79
2024-03-10T15:35:46.359Z,50.05
2024-03-10T15:38:15.186Z,50.27
2024-03-10T15:40:44.314Z,50.35
2024-03-10T15:43:13.797Z,50.56
2024-03-10T15:45:43.595Z,50.66
2024-03-10T15:48:12.707Z,50.82
2024-03-10T15:50:41.238Z,50.92
2024-03-10T15:53:11.752Z,50.96
2024-03-10T15:55:40.398Z,51.06
2024-03-10T15:58:09.186Z,51.13
2024-03-10T16:00:38.470Z,51.19
2024-03-10T16:03:14.546Z,51.30
2024-03-10T16:05:50.364Z,51.34
2024-03-10T16:08:19.959Z,51.45
2024-03-10T16:10:50.290Z,51.41
2024-03-10T16:13:37.839Z,51.54
2024-03-10T16:16:06.960Z,51.53
2024-03-10T16:18:38.398Z,51.51
2024-03-10T16:21:11.423Z,51.55
2024-03-10T16:23:39.740Z,51.58
2024-03-10T16:26:08.029Z,51.57
2024-03-10T16:28:36.019Z,51.44
2024-03-10T16:31:04.115Z,51.36
2024-03-10T16:33:31.971Z,51.39
2024-03-10T16:35:59.739Z,51.43
2024-03-10T16:38:27.529Z,51.44
2024-03-10T16:40:56.535Z,51.65
2024-03-10T16:43:25.052Z,51.72
2024-03-10T16:45:53.217Z,51.82
2024-03-10T16:48:21.207Z,51.81
2024-03-10T16:50:50.886Z,51.85
2024-03-10T16:53:18.805Z,51.94
2024-03-10T16:55:49.076Z,51.89
2024-03-10T16:58:20.491Z,51.87
2024-03-10T17:00:48.512Z,51.97
2024-03-10T17:03:16.886Z,51.93
2024-03-10T17:05:45.168Z,52.01
2024-03-10T17:08:14.882Z,52.11
2024-03-10T17:10:45.389Z,52.30
2024-03-10T17:13:15.048Z,52.52
2024-03-10T17:15:43.625Z,52.67
2024-03-10T17:18:14.348Z,52.64
2024-03-10T17:20:42.898Z,52.67
2024-03-10T17:23:13.931Z,52.63
2024-03-10T17:25:41.843Z,52.64
2024-03-10T17:28:09.786Z,52.65
2024-03-10T17:30:37.607Z,52.72
2024-03-10T17:33:05.968Z,52.68
2024-03-10T17:35:35.428Z,52.62
2024-03-10T17:38:05.513Z,52.67
2024-03-10T17:40:33.662Z,52.53
2024-03-10T17:43:01.635Z,52.30
2024-03-10T17:45:29.874Z,52.02
2024-03-10T17:48:00.547Z,51.89
2024-03-10T17:50:28.526Z,51.93
2024-03-10T17:52:56.718Z,51.96
2024-03-10T17:55:24.467Z,51.88
2024-03-10T17:57:52.719Z,51.84
2024-03-10T18:00:23.868Z,51.75
2024-03-10T18:02:52.005Z,51.69
2024-03-10T18:05:20.131Z,51.51
2024-03-10T18:07:52.323Z,51.46
2024-03-10T18:10:22.490Z,51.31
2024-03-10T18:12:54.854Z,51.32
2024-03-10T18:15:25.312Z,51.05
2024-03-10T18:17:54.291Z,50.98
2024-03-10T18:20:26.124Z,50.94
2024-03-10T18:22:54.243Z,50.91
2024-03-10T18:25:22.875Z,50.52
2024-03-10T18:27:51.938Z,50.52
2024-03-10T18:30:19.773Z,50.46
2024-03-10T18:32:48.772Z,50.28
2024-03-10T18:35:17.489Z,50.23
2024-03-10T18:37:46.074Z,50.21
2024-03-10T18:40:15.480Z,50.24
2024-03-10T18:42:44.347Z,50.23
2024-03-10T18:45:14.212Z,50.36
2024-03-10T18:47:42.463Z,50.20
2024-03-10T18:50:12.849Z,50.22
2024-03-10T18:52:42.482Z,50.36
2024-03-10T18:55:11.540Z,50.57
2024-03-10T18:57:39.719Z,50.84
2024-03-10T19:00:08.482Z,51.01
2024-03-10T19:02:36.891Z,51.08
2024-03-10T19:05:05.082Z,51.15
2024-03-10T19:07:32.986Z,51.32
2024-03-10T19:10:00.743Z,51.32
2024-03-10T19:12:28.565Z,51.27
2024-03-10T19:14:56.482Z,51.38
2024-03-10T19:17:26.234Z,51.42
2024-03-10T19:19:57.360Z,51.46
2024-03-10T19:22:25.234Z,51.51
2024-03-10T19:24:53.088Z,51.54
2024-03-10T19:27:20.905Z,51.41
2024-03-10T19:29:48.760Z,51.40
2024-03-10T19:32:16.553Z,51.32
2024-03-10T19:34:44.286Z,51.23
2024-03-10T19:37:11.996Z,51.31
2024-03-10T19:39:39.695Z,51.35
2024-03-10T19:42:07.671Z,51.33
2024-03-10T19:44:36.411Z,51.35
2024-03-10T19:47:06.343Z,51.35
2024-03-10T19:49:37.331Z,51.40
2024-03-10T19:52:05.449Z,51.48
2024-03-10T19:54:34.064Z,51.41
2024-03-10T19:57:02.024Z,51.48
2024-03-10T19:59:30.430Z,51.54
2024-03-10T20:02:00.674Z,51.60
2024-03-10T20:04:30.347Z,51.67
2024-03-10T20:06:58.337Z,51.76
2024-03-10T20:09:26.182Z,51.95
2024-03-10T20:11:55.051Z,52.04
2024-03-10T20:14:23.011Z,52.11
2024-03-10T20:16:50.938Z,52.28
2024-03-10T20:19:18.813Z,52.35
2024-03-10T20:21:46.549Z,52.50
2024-03-10T20:24:16.048Z,52.66
2024-03-10T20:26:44.061Z,52.74
2024-03-10T20:29:11.833Z,52.78
2024-03-10T20:31:39.855Z,52.85
2024-03-10T20:34:07.737Z,52.99
2024-03-10T20:36:37.311Z,53.07
2024-03-10T20:39:05.717Z,53.22
2024-03-10T20:41:33.461Z,53.34
2024-03-10T20:44:01.421Z,53.53
2024-03-10T20:46:34.628Z,53.70
2024-03-10T20:49:06.905Z,53.81
2024-03-10T20:51:35.146Z,53.96
2024-03-10T20:54:04.394Z,54.13
2024-03-10T20:56:32.175Z,54.26
2024-03-10T20:59:00.203Z,54.41
2024-03-10T21:01:28.475Z,54.61
2024-03-10T21:03:56.455Z,54.73
2024-03-10T21:06:24.549Z,54.85
2024-03-10T21:08:52.314Z,54.93
2024-03-10T21:11:20.343Z,55.12
2024-03-10T21:13:49.648Z,55.32
2024-03-10T21:16:17.382Z,55.41
2024-03-10T21:18:45.379Z,55.61
2024-03-10T21:21:13.190Z,55.74
2024-03-10T21:23:41.280Z,55.87
2024-03-10T21:26:09.597Z,55.99
2024-03-10T21:28:37.962Z,56.24
2024-03-10T21:31:05.720Z,56.30
2024-03-10T21:33:33.732Z,56.44
2024-03-10T21:36:03.511Z,56.65
2024-03-10T21:38:31.278Z,56.73
2024-03-10T21:41:03.977Z,56.95
2024-03-10T21:43:31.798Z,57.21
2024-03-10T21:46:04.192Z,57.40
2024-03-10T21:48:32.022Z,57.53
2024-03-10T21:51:00.336Z,57.91
2024-03-10T21:53:28.126Z,58.11
2024-03-10T21:55:55.942Z,58.23
2024-03-10T21:58:23.855Z,58.49
2024-03-10T22:00:51.671Z,58.96
2024-03-10T22:03:22.544Z,59.40
2024-03-10T22:05:51.777Z,59.74
2024-03-10T22:08:19.790Z,60.17
2024-03-10T22:10:47.503Z,60.60
2024-03-10T22:13:15.358Z,61.09
2024-03-10T22:15:43.349Z,61.29
2024-03-10T22:18:11.575Z,61.78
2024-03-10T22:20:39.625Z,61.93
2024-03-10T22:23:07.699Z,62.40
2024-03-10T22:25:35.629Z,62.69
2024-03-10T22:28:04.030Z,62.98
2024-03-10T22:30:33.037Z,62.87
2024-03-10T22:33:01.394Z,63.24
2024-03-10T22:35:29.483Z,63.21
2024-03-10T22:37:59.047Z,63.36
2024-03-10T22:40:29.140Z,63.21
2024-03-10T22:42:59.355Z,63.42
2024-03-10T22:45:31.420Z,63.70
2024-03-10T22:48:02.417Z,63.78
2024-03-10T22:50:31.405Z,63.90
2024-03-10T22:53:04.021Z,63.97
2024-03-10T22:55:33.458Z,64.15
2024-03-10T22:58:02.460Z,64.35
2024-03-10T23:00:37.214Z,64.50
2024-03-10T23:03:08.448Z,64.42
2024-03-10T23:05:37.306Z,64.46
2024-03-10T23:08:06.908Z,64.59
2024-03-10T23:10:43.351Z,64.63
2024-03-10T23:13:11.720Z,64.83
2024-03-10T23:15:40.855Z,65.16
2024-03-10T23:18:09.164Z,65.05
2024-03-10T23:20:37.338Z,65.22
2024-03-10T23:23:05.706Z,65.27
2024-03-10T23:25:33.600Z,65.38
2024-03-10T23:28:01.431Z,65.57
2024-03-10T23:30:29.283Z,65.60
2024-03-10T23:32:57.527Z,65.69
2024-03-10T23:35:26.016Z,65.82
2024-03-10T23:37:54.865Z,65.94
2024-03-10T23:40:24.739Z,66.03
2024-03-10T23:42:53.684Z,65.99
2024-03-10T23:45:22.004Z,66.25
2024-03-10T23:47:52.145Z,66.36
2024-03-10T23:50:22.053Z,66.55
2024-03-10T23:52:54.068Z,66.58
2024-03-10T23:55:34.858Z,66.57
2024-03-10T23:58:02.609Z,66.62
